Lovetch, Bulgaria
Current Conditions -  °F | °C
As of 3:00 PM on Sunday 21 Dec 2014 (Local Time) from LBGO Reporting Station
Scattered Clouds Scattered Clouds  
Wind Chill: 40°   Ceiling: Unl
Heat Index: 46°   Visibility: 6mi
Dew Point: 36°   Wind: 16mph
Humidity: 66%   Direction: 290°WNW
Pressure: 30.12"   Gusts: NA
Location:  43.13°N, 24.72°E
Report Text: LBGO 211200Z 29014KT 9999 SCT032 08/02 Q1020 NOSIG
Loading
Personal Weather Stations






























Interactive Weather Map New forecast layout! Learn more

10-Day Weather Forecast

Advertisements
Track Severe Weather on mobile